Accueil
METAR-TAF:

METAR-TAF

Aéroports :

Xi'an, Chine

Aéroport international de Xi'an Xianyang

latitude: 34-26N, longitude: 108-45E, altitude: 479 m

Observation

Le bulletin a été fait il y a 48 minutes, à 08:00 UTC
Vent 6 kt de est/nord-est, variant entre nord/nord-ouest et est/sud-est
Température 41°C
Humidité 25%
Pression 1001 hPa
Visibilité 10 km ou plus
Quelques nuages à une hauteur de 3300 ft, Cumulus congestus.
Quelques nuages à une hauteur de 3300 ft

METAR: ZLXY 240800Z 07003MPS 340V120 9999 FEW033TCU FEW033 41/17 Q1001 NOSIG

Heure: 16:48 (08:48 UTC)

Prévision

Le bulletin a été fait il y a 5 heures et 37 minutes, à 03:11 UTC
Prévision valable du 24 à 06 UTC au 25 à 06 UTC
Vent 6 kt de sud/sud-ouest
Visibilité: 6000 m
Temporairement
du 24 à 08 UTC au 24 à 14 UTC
Quelques nuages à une hauteur de 4000 ft, Cumulonimbus.
averses de pluie

TAF: ZLXY 240311Z 2406/2506 21003MPS 6000 NSC TX42/2408Z TN27/2421Z TEMPO 2408/2414 SHRA FEW040CB

Observations et prévisions météorologiques de plus de 4000 aéroports (messages METAR et TAF).

Les stations disponibles sont représentées par des disques jaunes et rouges sur la carte.

Passer la souris dessus pour voir le nom de la station.

Cliquer dessus pour voir les observations et prévisions météorologiques.

Pour changer de carte: cliquez sur les boutons verts avec une croix noire pour zoomer, sur le bouton vert avec un tiret pour effectuer un zoom arrière, ou sur les flèches vertes pour les cartes adjacentes.


METAR-TAF: